createdAt,value
2019-05-01T00:02:10.707Z,101.40
2019-05-01T00:04:52.303Z,95.30
2019-05-01T00:07:25.015Z,102.12
2019-05-01T00:09:56.283Z,99.72
2019-05-01T00:12:27.136Z,92.90
2019-05-01T00:14:58.388Z,102.12
2019-05-01T00:17:29.460Z,99.62
2019-05-01T00:20:00.403Z,109.17
2019-05-01T00:22:31.280Z,112.47
2019-05-01T00:25:02.340Z,107.60
2019-05-01T00:27:33.296Z,95.92
2019-05-01T00:30:08.089Z,104.58
2019-05-01T00:32:40.122Z,104.00
2019-05-01T00:35:10.878Z,103.67
2019-05-01T00:37:41.629Z,98.58
2019-05-01T00:40:12.792Z,91.25
2019-05-01T00:42:43.651Z,100.15
2019-05-01T00:45:14.591Z,96.40
2019-05-01T00:47:45.565Z,103.38
2019-05-01T00:50:16.505Z,90.57
2019-05-01T00:52:47.483Z,99.55
2019-05-01T00:55:36.645Z,89.17
2019-05-01T00:58:18.242Z,89.70
2019-05-01T01:00:53.598Z,94.30
2019-05-01T01:03:24.657Z,88.37
2019-05-01T01:05:55.511Z,83.07
2019-05-01T01:08:26.577Z,103.92
2019-05-01T01:10:57.536Z,94.55
2019-05-01T01:13:28.678Z,89.97
2019-05-01T01:15:59.755Z,90.42
2019-05-01T01:18:30.816Z,87.40
2019-05-01T01:21:01.776Z,92.10
2019-05-01T01:23:33.448Z,94.10
2019-05-01T01:26:04.099Z,86.22
2019-05-01T01:28:35.159Z,83.10
2019-05-01T01:31:05.999Z,89.07
2019-05-01T01:33:37.996Z,86.67
2019-05-01T01:36:08.649Z,84.50
2019-05-01T01:38:39.710Z,88.47
2019-05-01T01:41:10.771Z,94.35
2019-05-01T01:43:56.252Z,91.05
2019-05-01T01:46:34.883Z,91.22
2019-05-01T01:49:05.940Z,88.40
2019-05-01T01:51:36.780Z,96.82
2019-05-01T01:54:08.064Z,90.75
2019-05-01T01:56:39.071Z,94.97
2019-05-01T01:59:10.190Z,82.85
2019-05-01T02:01:48.405Z,87.78
2019-05-01T02:04:21.099Z,91.22
2019-05-01T02:06:52.165Z,86.45
2019-05-01T02:09:23.122Z,86.60
2019-05-01T02:11:54.181Z,88.85
2019-05-01T02:14:25.139Z,82.12
2019-05-01T02:16:55.994Z,85.47
2019-05-01T02:19:27.054Z,88.95
2019-05-01T02:21:57.893Z,78.87
2019-05-01T02:24:28.975Z,78.92
2019-05-01T02:27:04.433Z,84.50
2019-05-01T02:29:37.539Z,80.28
2019-05-01T02:32:08.906Z,83.27
2019-05-01T02:34:43.230Z,81.15
2019-05-01T02:37:16.032Z,79.05
2019-05-01T02:39:49.228Z,87.75
2019-05-01T02:42:22.557Z,84.13
2019-05-01T02:44:55.237Z,82.97
2019-05-01T02:47:29.487Z,90.38
2019-05-01T02:50:03.432Z,83.85
2019-05-01T02:52:37.640Z,84.92
2019-05-01T02:55:11.774Z,76.80
2019-05-01T02:57:43.545Z,85.62
2019-05-01T03:00:14.780Z,85.07
2019-05-01T03:02:45.885Z,88.87
2019-05-01T03:05:16.627Z,83.03
2019-05-01T03:07:47.584Z,85.57
2019-05-01T03:10:18.744Z,80.50
2019-05-01T03:12:52.459Z,81.80
2019-05-01T03:15:24.285Z,85.92
2019-05-01T03:17:57.246Z,86.60
2019-05-01T03:20:42.357Z,83.40
2019-05-01T03:23:15.427Z,78.67
2019-05-01T03:25:47.000Z,71.10
2019-05-01T03:28:18.052Z,72.47
2019-05-01T03:30:49.215Z,80.70
2019-05-01T03:33:19.853Z,70.85
2019-05-01T03:35:51.239Z,80.45
2019-05-01T03:38:22.191Z,81.85
2019-05-01T03:40:53.263Z,80.80
2019-05-01T03:43:24.205Z,73.72
2019-05-01T03:45:56.014Z,79.92
2019-05-01T03:48:27.055Z,82.12
2019-05-01T03:50:58.116Z,82.47
2019-05-01T03:53:29.892Z,81.82
2019-05-01T03:56:01.781Z,83.30
2019-05-01T03:58:33.327Z,84.85
2019-05-01T04:01:14.927Z,81.90
2019-05-01T04:03:53.566Z,79.03
2019-05-01T04:06:24.529Z,81.75
2019-05-01T04:08:56.118Z,81.82
2019-05-01T04:11:26.832Z,85.30
2019-05-01T04:13:58.515Z,76.72
2019-05-01T04:16:29.488Z,80.35
2019-05-01T04:19:00.442Z,78.97
2019-05-01T04:21:32.901Z,88.15
2019-05-01T04:24:04.505Z,82.00
2019-05-01T04:26:35.272Z,77.87
2019-05-01T04:29:16.754Z,80.57
2019-05-01T04:32:04.407Z,84.75
2019-05-01T04:34:46.386Z,78.62
2019-05-01T04:37:18.776Z,75.55
2019-05-01T04:39:49.938Z,75.92
2019-05-01T04:42:20.776Z,79.97
2019-05-01T04:44:51.856Z,74.12
2019-05-01T04:47:23.235Z,75.08
2019-05-01T04:49:54.489Z,76.57
2019-05-01T04:52:25.608Z,75.08
2019-05-01T04:54:56.611Z,75.08
2019-05-01T04:57:27.652Z,76.45
2019-05-01T04:59:59.651Z,75.83
2019-05-01T05:02:32.639Z,72.95
2019-05-01T05:05:03.816Z,71.80
2019-05-01T05:07:34.662Z,70.52
2019-05-01T05:10:06.640Z,75.28
2019-05-01T05:12:39.261Z,67.37
2019-05-01T05:15:26.979Z,66.10
2019-05-01T05:17:58.140Z,68.30
2019-05-01T05:20:29.288Z,68.65
2019-05-01T05:23:00.809Z,68.85
2019-05-01T05:25:31.837Z,66.65
2019-05-01T05:28:02.800Z,61.60
2019-05-01T05:30:36.399Z,65.60
2019-05-01T05:33:18.041Z,70.28
2019-05-01T05:35:43.751Z,68.12
2019-05-01T05:38:21.459Z,61.00
2019-05-01T05:40:52.965Z,64.30
2019-05-01T05:43:24.989Z,68.30
2019-05-01T05:45:56.380Z,63.73
2019-05-01T05:48:27.735Z,59.35
2019-05-01T05:51:10.875Z,58.38
2019-05-01T05:53:50.837Z,74.62
2019-05-01T05:56:25.986Z,60.50
2019-05-01T05:59:00.205Z,56.40
2019-05-01T06:01:52.654Z,58.00
2019-05-01T06:04:30.565Z,55.33
2019-05-01T06:07:05.801Z,56.48
2019-05-01T06:09:44.506Z,52.78
2019-05-01T06:12:22.161Z,53.08
2019-05-01T06:14:56.272Z,50.78
2019-05-01T06:17:35.016Z,55.73
2019-05-01T06:20:12.914Z,60.15
2019-05-01T06:23:04.945Z,51.30
2019-05-01T06:25:40.139Z,54.05
2019-05-01T06:28:11.787Z,48.20
2019-05-01T06:30:47.049Z,50.20
2019-05-01T06:33:15.542Z,44.03
2019-05-01T06:35:46.384Z,47.15
2019-05-01T06:38:18.717Z,54.15
2019-05-01T06:40:52.944Z,52.83
2019-05-01T06:43:30.411Z,46.95
2019-05-01T06:46:09.457Z,47.13
2019-05-01T06:48:53.506Z,50.80
2019-05-01T06:51:35.711Z,51.02
2019-05-01T06:54:16.422Z,45.38
2019-05-01T06:56:49.913Z,45.30
2019-05-01T06:59:26.137Z,46.28
2019-05-01T07:02:02.375Z,43.05
2019-05-01T07:04:44.860Z,49.83
2019-05-01T07:07:25.246Z,46.80
2019-05-01T07:09:53.335Z,44.70
2019-05-01T07:12:31.870Z,46.63
2019-05-01T07:15:10.061Z,49.80
2019-05-01T07:17:53.539Z,46.70
2019-05-01T07:20:38.477Z,44.30
2019-05-01T07:23:19.198Z,46.40
2019-05-01T07:25:55.591Z,46.18
2019-05-01T07:28:33.583Z,47.25
2019-05-01T07:31:04.991Z,47.15
2019-05-01T07:33:34.967Z,46.73
2019-05-01T07:36:15.012Z,52.13
2019-05-01T07:38:40.541Z,45.15
2019-05-01T07:41:12.464Z,46.53
2019-05-01T07:43:45.254Z,45.70
2019-05-01T07:46:30.313Z,44.55
2019-05-01T07:49:02.176Z,41.90
2019-05-01T07:51:33.139Z,46.00
2019-05-01T07:54:08.521Z,41.00
2019-05-01T07:56:37.588Z,43.17
2019-05-01T07:59:08.575Z,47.53
2019-05-01T08:01:42.711Z,44.58
2019-05-01T08:04:19.752Z,45.28
2019-05-01T08:06:47.512Z,44.63
2019-05-01T08:09:20.062Z,39.70
2019-05-01T08:11:58.028Z,42.55
2019-05-01T08:14:31.621Z,39.45
2019-05-01T08:17:02.684Z,35.05
2019-05-01T08:19:39.505Z,40.35
2019-05-01T08:22:09.035Z,33.40
2019-05-01T08:24:40.056Z,30.65
2019-05-01T08:27:15.666Z,32.05
2019-05-01T08:29:53.232Z,29.95
2019-05-01T08:32:40.907Z,34.37
2019-05-01T08:35:12.815Z,34.95
2019-05-01T08:37:43.792Z,37.90
2019-05-01T08:40:15.880Z,27.15
2019-05-01T08:42:47.449Z,35.48
2019-05-01T08:45:23.112Z,31.87
2019-05-01T08:48:10.638Z,28.47
2019-05-01T08:50:41.638Z,33.05
2019-05-01T08:53:12.762Z,29.18
2019-05-01T08:55:45.005Z,34.78
2019-05-01T08:58:16.004Z,30.65
2019-05-01T09:00:47.166Z,28.98
2019-05-01T09:03:18.870Z,48.33
2019-05-01T09:05:52.138Z,56.80
2019-05-01T09:08:22.701Z,83.82
2019-05-01T09:10:54.819Z,49.60
2019-05-01T09:13:29.425Z,32.73
2019-05-01T09:16:00.689Z,28.47
2019-05-01T09:18:31.735Z,24.60
2019-05-01T09:21:02.711Z,36.85
2019-05-01T09:23:34.635Z,69.90
2019-05-01T09:26:22.730Z,58.30
2019-05-01T09:28:55.222Z,48.02
2019-05-01T09:31:33.994Z,51.28
2019-05-01T09:34:03.361Z,71.47
2019-05-01T09:36:34.216Z,45.67
2019-05-01T09:39:07.340Z,47.50
2019-05-01T09:41:38.871Z,23.30
2019-05-01T09:44:12.010Z,29.80
2019-05-01T09:46:42.651Z,26.48
2019-05-01T09:49:17.767Z,28.67
2019-05-01T09:52:05.350Z,32.40
2019-05-01T09:57:30.160Z,43.73
2019-05-01T10:00:07.575Z,35.70
2019-05-01T10:58:29.994Z,18.57
2019-05-01T11:01:02.575Z,16.00
2019-05-01T11:03:33.426Z,13.08
2019-05-01T11:06:04.409Z,15.38
2019-05-01T11:08:35.668Z,21.68
2019-05-01T11:11:06.728Z,16.62
2019-05-01T11:13:37.792Z,15.50
2019-05-01T11:16:08.857Z,16.32
2019-05-01T11:18:40.047Z,18.82
2019-05-01T11:21:10.875Z,18.98
2019-05-01T11:23:41.729Z,20.30
2019-05-01T11:26:12.886Z,21.20
2019-05-01T11:28:44.049Z,20.25
2019-05-01T11:31:16.645Z,15.00
2019-05-01T11:33:58.226Z,16.77
2019-05-01T11:36:48.731Z,14.20
2019-05-01T11:39:24.096Z,16.05
2019-05-01T11:42:15.918Z,14.35
2019-05-01T11:44:47.085Z,11.90
2019-05-01T11:47:17.931Z,16.05
2019-05-01T11:49:50.360Z,14.50
2019-05-01T11:52:25.646Z,13.40
2019-05-01T11:54:59.915Z,17.57
2019-05-01T11:57:33.067Z,17.62
2019-05-01T12:00:16.163Z,20.88
2019-05-01T12:03:00.587Z,13.55
2019-05-01T12:05:39.860Z,16.25
2019-05-01T12:08:18.575Z,13.13
2019-05-01T12:10:59.180Z,11.93
2019-05-01T12:13:43.298Z,13.50
2019-05-01T12:16:06.796Z,10.98
2019-05-01T12:18:38.059Z,10.75
2019-05-01T12:21:08.713Z,16.67
2019-05-01T12:23:39.663Z,16.97
2019-05-01T12:26:10.832Z,14.83
2019-05-01T12:28:41.688Z,18.27
2019-05-01T12:31:12.731Z,8.95
2019-05-01T12:33:43.606Z,12.73
2019-05-01T12:36:14.665Z,15.65
2019-05-01T12:38:45.418Z,10.85
2019-05-01T12:41:27.117Z,14.53
2019-05-01T12:43:58.058Z,9.60
2019-05-01T12:46:36.296Z,7.17
2019-05-01T12:49:08.479Z,11.12
2019-05-01T12:51:40.461Z,6.50
2019-05-01T12:54:18.782Z,9.18
2019-05-01T12:56:59.356Z,14.05
2019-05-01T12:59:30.518Z,9.98
2019-05-01T13:02:01.376Z,11.68
2019-05-01T13:04:32.520Z,15.85
2019-05-01T13:07:03.701Z,13.40
2019-05-01T13:09:34.851Z,12.95
2019-05-01T13:12:06.845Z,14.65
2019-05-01T13:14:37.581Z,5.25
2019-05-01T13:17:08.460Z,5.53
2019-05-01T13:19:39.313Z,7.85
2019-05-01T13:22:10.270Z,9.40
2019-05-01T13:24:50.227Z,8.18
2019-05-01T13:27:31.616Z,7.67
2019-05-01T13:30:09.921Z,8.20
2019-05-01T13:32:42.315Z,13.48
2019-05-01T13:35:13.596Z,13.62
2019-05-01T13:37:44.657Z,7.25
2019-05-01T13:40:17.135Z,15.18
2019-05-01T13:42:47.901Z,9.43
2019-05-01T13:45:18.962Z,9.73
2019-05-01T13:47:49.822Z,13.15
2019-05-01T13:50:21.086Z,13.43
2019-05-01T13:52:52.042Z,24.63
2019-05-01T13:55:23.206Z,33.23
2019-05-01T13:57:54.350Z,8.60
2019-05-01T14:00:26.774Z,4.22
2019-05-01T14:02:57.413Z,7.80
2019-05-01T14:05:28.559Z,5.70
2019-05-01T14:07:59.327Z,7.42
2019-05-01T14:10:30.268Z,11.12
2019-05-01T14:13:01.330Z,6.20
2019-05-01T14:15:32.184Z,12.88
2019-05-01T14:18:03.369Z,16.55
2019-05-01T14:20:52.513Z,14.90
2019-05-01T14:23:27.764Z,9.48
2019-05-01T14:26:06.294Z,8.48
2019-05-01T14:28:38.659Z,15.25
2019-05-01T14:31:09.357Z,7.55
2019-05-01T14:33:40.192Z,9.75
2019-05-01T14:36:11.168Z,9.45
2019-05-01T14:38:42.022Z,9.15
2019-05-01T14:41:12.865Z,10.43
2019-05-01T14:43:43.819Z,7.42
2019-05-01T14:46:14.797Z,5.33
2019-05-01T14:48:45.548Z,9.58
2019-05-01T14:51:16.506Z,7.58
2019-05-01T14:53:47.363Z,6.22
2019-05-01T14:56:18.217Z,6.15
2019-05-01T14:58:49.176Z,7.92
2019-05-01T15:01:20.139Z,12.53
2019-05-01T15:03:50.975Z,13.48
2019-05-01T15:06:22.159Z,16.32
2019-05-01T15:08:53.198Z,9.45
2019-05-01T15:11:24.054Z,8.63
2019-05-01T15:14:12.909Z,8.90
2019-05-01T15:16:45.300Z,7.90
2019-05-01T15:19:17.767Z,6.50
2019-05-01T15:21:48.563Z,9.13
2019-05-01T15:24:19.521Z,7.00
2019-05-01T15:26:50.386Z,6.05
2019-05-01T15:29:21.338Z,5.37
2019-05-01T15:31:58.535Z,6.30
2019-05-01T15:34:29.681Z,18.95
2019-05-01T15:37:00.451Z,5.90
2019-05-01T15:39:33.235Z,12.10
2019-05-01T15:42:24.151Z,8.18
2019-05-01T15:44:55.011Z,13.58
2019-05-01T15:47:25.949Z,7.60
2019-05-01T15:49:56.713Z,9.70
2019-05-01T15:52:27.766Z,11.10
2019-05-01T15:54:58.967Z,6.83
2019-05-01T15:57:29.800Z,5.62
2019-05-01T16:00:00.657Z,6.50
2019-05-01T16:02:31.615Z,5.62
2019-05-01T16:05:02.471Z,9.48
2019-05-01T16:07:33.326Z,6.25
2019-05-01T16:10:08.768Z,7.78
2019-05-01T16:12:43.921Z,7.87
2019-05-01T16:15:25.428Z,7.47
2019-05-01T16:17:56.288Z,1.67
2019-05-01T16:20:27.244Z,6.37
2019-05-01T16:22:57.979Z,3.17
2019-05-01T16:25:28.958Z,13.18
2019-05-01T16:27:59.927Z,6.35
2019-05-01T16:30:30.796Z,9.15
2019-05-01T16:33:05.320Z,5.37
2019-05-01T16:35:36.252Z,5.33
2019-05-01T16:38:08.656Z,7.47
2019-05-01T16:40:41.252Z,7.10
2019-05-01T16:43:12.722Z,3.37
2019-05-01T16:45:43.885Z,2.58
2019-05-01T16:48:15.456Z,5.95
2019-05-01T16:50:46.415Z,5.05
2019-05-01T16:53:17.152Z,5.80
2019-05-01T16:55:48.109Z,5.45
2019-05-01T16:58:19.397Z,6.83
2019-05-01T17:01:02.930Z,5.72
2019-05-01T17:03:44.509Z,8.18
2019-05-01T17:06:17.030Z,12.13
2019-05-01T17:08:52.569Z,6.65
2019-05-01T17:11:28.736Z,7.75
2019-05-01T17:14:00.312Z,15.40
2019-05-01T17:16:31.286Z,9.35
2019-05-01T17:19:02.346Z,16.82
2019-05-01T17:21:33.200Z,7.22
2019-05-01T17:24:04.141Z,8.95
2019-05-01T17:26:35.015Z,5.70
2019-05-01T17:29:05.771Z,7.60
2019-05-01T17:31:36.606Z,6.17
2019-05-01T17:34:09.706Z,14.00
2019-05-01T17:36:39.976Z,20.40
2019-05-01T17:39:12.162Z,27.17
2019-05-01T17:41:42.929Z,10.55
2019-05-01T17:44:13.975Z,11.43
2019-05-01T17:46:53.389Z,16.17
2019-05-01T17:49:33.204Z,10.30
2019-05-01T17:52:06.181Z,12.53
2019-05-01T17:54:37.242Z,5.85
2019-05-01T17:57:08.201Z,9.78
2019-05-01T17:59:39.059Z,5.53
2019-05-01T18:02:24.845Z,6.08
2019-05-01T18:04:57.232Z,4.62
2019-05-01T18:07:33.143Z,5.75
2019-05-01T18:10:01.914Z,1.50
2019-05-01T18:12:32.666Z,3.52
2019-05-01T18:15:04.119Z,3.55
2019-05-01T18:17:34.564Z,3.10
2019-05-01T18:20:07.284Z,6.67
2019-05-01T18:22:39.671Z,2.20
2019-05-01T18:25:33.184Z,4.97
2019-05-01T18:28:06.138Z,2.02
2019-05-01T18:30:38.507Z,5.00
2019-05-01T18:33:09.482Z,5.33
2019-05-01T18:35:40.011Z,2.90
2019-05-01T18:38:21.407Z,4.75
2019-05-01T18:40:59.846Z,5.65
2019-05-01T18:43:32.154Z,3.60
2019-05-01T18:46:03.706Z,2.42
2019-05-01T18:48:34.561Z,4.45
2019-05-01T18:51:06.222Z,3.12
2019-05-01T18:53:36.972Z,4.15
2019-05-01T18:56:07.954Z,3.83
2019-05-01T18:58:38.809Z,4.00
2019-05-01T19:01:10.819Z,2.15
2019-05-01T19:03:42.300Z,4.22
2019-05-01T19:06:13.420Z,4.35
2019-05-01T19:08:44.154Z,2.75
2019-05-01T19:11:15.717Z,2.00
2019-05-01T19:13:46.307Z,1.47
2019-05-01T19:16:17.151Z,4.03
2019-05-01T19:18:47.906Z,5.25
2019-05-01T19:21:20.563Z,1.57
2019-05-01T19:23:52.820Z,6.55
2019-05-01T19:26:23.932Z,4.42
2019-05-01T19:28:54.815Z,2.98
2019-05-01T19:31:25.866Z,3.75
2019-05-01T19:33:56.441Z,3.55
2019-05-01T19:36:27.051Z,4.12
2019-05-01T19:38:58.043Z,1.87
2019-05-01T19:41:30.965Z,0.93
2019-05-01T19:44:01.476Z,2.17
2019-05-01T19:46:32.333Z,4.22
2019-05-01T19:49:03.419Z,9.23
2019-05-01T19:51:35.079Z,1.20
2019-05-01T19:54:06.045Z,3.55
2019-05-01T19:56:36.990Z,3.75
2019-05-01T19:59:07.925Z,4.15
2019-05-01T20:01:44.633Z,4.85
2019-05-01T20:04:13.218Z,1.05
2019-05-01T20:06:43.713Z,2.98
2019-05-01T20:09:14.726Z,5.47
2019-05-01T20:11:45.396Z,1.92
2019-05-01T20:14:17.358Z,2.05
2019-05-01T20:16:50.989Z,2.33
2019-05-01T20:19:21.627Z,2.12
2019-05-01T20:21:54.144Z,3.35
2019-05-01T20:24:24.872Z,4.25
2019-05-01T20:26:57.586Z,3.25
2019-05-01T20:29:31.514Z,4.95
2019-05-01T20:32:03.289Z,4.90
2019-05-01T20:34:34.059Z,4.90
2019-05-01T20:37:04.780Z,6.50
2019-05-01T20:39:35.962Z,1.12
2019-05-01T20:42:07.112Z,3.42
2019-05-01T20:44:37.771Z,2.35
2019-05-01T20:47:08.507Z,1.30
2019-05-01T20:49:41.323Z,3.98
2019-05-01T20:52:12.487Z,4.95
2019-05-01T20:54:43.230Z,2.83
2019-05-01T20:57:20.759Z,4.75
2019-05-01T20:59:48.344Z,2.40
2019-05-01T21:02:19.169Z,1.52
2019-05-01T21:04:52.082Z,2.60
2019-05-01T21:07:29.985Z,3.62
2019-05-01T21:10:02.281Z,2.42
2019-05-01T21:12:33.329Z,1.98
2019-05-01T21:15:07.628Z,5.85
2019-05-01T21:17:44.267Z,3.22
2019-05-01T21:20:13.522Z,2.45
2019-05-01T21:22:44.037Z,4.10
2019-05-01T21:25:14.787Z,2.98
2019-05-01T21:27:45.541Z,2.40
2019-05-01T21:30:16.381Z,1.92
2019-05-01T21:32:47.269Z,3.20
2019-05-01T21:35:18.008Z,2.85
2019-05-01T21:37:48.968Z,2.00
2019-05-01T21:40:19.398Z,5.22
2019-05-01T21:42:54.327Z,3.85
2019-05-01T21:45:23.579Z,3.90
2019-05-01T21:47:55.663Z,4.45
2019-05-01T21:50:27.850Z,3.10
2019-05-01T21:53:03.316Z,3.30
2019-05-01T21:55:32.122Z,3.83
2019-05-01T21:58:05.031Z,4.20
2019-05-01T22:00:39.644Z,4.58
2019-05-01T22:03:10.806Z,4.95
2019-05-01T22:05:41.882Z,4.25
2019-05-01T22:08:12.737Z,8.55
2019-05-01T22:10:51.766Z,3.00
2019-05-01T22:13:20.351Z,5.22
2019-05-01T22:15:53.368Z,3.70
2019-05-01T22:18:31.710Z,2.02
2019-05-01T22:21:03.983Z,3.25
2019-05-01T22:23:52.444Z,2.45
2019-05-01T22:26:23.483Z,9.28
2019-05-01T22:28:56.121Z,2.52
2019-05-01T22:31:44.839Z,3.27
2019-05-01T22:34:32.160Z,2.80
2019-05-01T22:37:03.016Z,5.20
2019-05-01T22:39:34.792Z,3.65
2019-05-01T22:42:05.343Z,4.50
2019-05-01T22:47:10.164Z,5.10
2019-05-01T22:49:38.836Z,2.27
2019-05-01T22:52:09.599Z,5.78
2019-05-01T22:54:40.338Z,2.72
2019-05-01T22:57:11.193Z,2.47
2019-05-01T22:59:41.949Z,5.10
2019-05-01T23:02:28.480Z,3.92
2019-05-01T23:04:58.590Z,4.50
2019-05-01T23:07:29.468Z,3.75
2019-05-01T23:10:03.199Z,5.03
2019-05-01T23:12:32.711Z,3.92
2019-05-01T23:15:06.123Z,3.42
2019-05-01T23:17:41.683Z,4.33
2019-05-01T23:20:12.643Z,3.95
2019-05-01T23:22:43.378Z,3.00
2019-05-01T23:25:14.971Z,4.15
2019-05-01T23:27:45.831Z,6.03
2019-05-01T23:30:19.137Z,5.97
2019-05-01T23:32:49.992Z,4.37
2019-05-01T23:35:20.727Z,6.92
2019-05-01T23:37:51.501Z,4.15
2019-05-01T23:40:22.361Z,3.40
2019-05-01T23:42:53.955Z,4.10
2019-05-01T23:45:24.580Z,3.87
2019-05-01T23:47:55.434Z,5.25
2019-05-01T23:50:26.187Z,4.97
2019-05-01T23:52:56.923Z,7.78
2019-05-01T23:55:27.797Z,4.12
2019-05-01T23:57:58.656Z,4.55
